CEB617 RPLL-RPSP
Flight info
| Callsign | CEB617 |
|---|---|
| Flight time | 1h 1m |
| Altitude | 35000 |
| Route | IPATA2R/06 IPAT2R IPATA W25 BATAY BATA1P |
| Aircraft | A339/M-V/N |
Departure
| Time | 2026-05-07 03:09 |
|---|---|
| Airport | Ninoy Aquino International Airport (RPLL) |
Arrival
| Time | 2026-05-07 04:10 |
|---|---|
| Airport | Bohol-Panglao International Airport (RPSP) |
| Time | Latitude | Longitude | Altitude | Speed | Heading |
|---|---|---|---|---|---|
| 2026-05-07 02:59 | 14.51068 | 121.01887 | 90 ft | 11 kts | 134° |
| 2026-05-07 02:59 | 14.51023 | 121.01914 | 90 ft | 7 kts | 179° |
| 2026-05-07 03:00 | 14.50979 | 121.01880 | 90 ft | 9 kts | 242° |
| 2026-05-07 03:00 | 14.50945 | 121.01815 | 90 ft | 11 kts | 241° |
| 2026-05-07 03:00 | 14.50905 | 121.01742 | 90 ft | 14 kts | 240° |
| 2026-05-07 03:00 | 14.50854 | 121.01651 | 90 ft | 15 kts | 240° |
| 2026-05-07 03:01 | 14.50799 | 121.01553 | 90 ft | 16 kts | 240° |
| 2026-05-07 03:01 | 14.50738 | 121.01444 | 90 ft | 18 kts | 240° |
| 2026-05-07 03:01 | 14.50678 | 121.01334 | 90 ft | 13 kts | 240° |
| 2026-05-07 03:01 | 14.50627 | 121.01244 | 90 ft | 14 kts | 240° |
| 2026-05-07 03:02 | 14.50575 | 121.01150 | 90 ft | 15 kts | 240° |
| 2026-05-07 03:02 | 14.50521 | 121.01051 | 90 ft | 16 kts | 240° |
| 2026-05-07 03:02 | 14.50465 | 121.00950 | 90 ft | 16 kts | 240° |
| 2026-05-07 03:02 | 14.50405 | 121.00845 | 90 ft | 17 kts | 240° |
| 2026-05-07 03:03 | 14.50345 | 121.00737 | 90 ft | 17 kts | 242° |
| 2026-05-07 03:03 | 14.50285 | 121.00627 | 90 ft | 17 kts | 240° |
| 2026-05-07 03:03 | 14.50225 | 121.00520 | 90 ft | 13 kts | 240° |
| 2026-05-07 03:03 | 14.50193 | 121.00463 | 90 ft | 0 kts | 240° |
| 2026-05-07 03:04 | 14.50193 | 121.00462 | 90 ft | 0 kts | 240° |
| 2026-05-07 03:04 | 14.50189 | 121.00455 | 90 ft | 3 kts | 240° |
| 2026-05-07 03:05 | 14.50170 | 121.00421 | 90 ft | 7 kts | 240° |
| 2026-05-07 03:05 | 14.50138 | 121.00362 | 90 ft | 11 kts | 240° |
| 2026-05-07 03:05 | 14.50095 | 121.00285 | 90 ft | 13 kts | 240° |
| 2026-05-07 03:05 | 14.50043 | 121.00192 | 90 ft | 16 kts | 240° |
| 2026-05-07 03:06 | 14.49986 | 121.00089 | 90 ft | 16 kts | 239° |
| 2026-05-07 03:06 | 14.49948 | 121.00021 | 90 ft | 5 kts | 240° |
| 2026-05-07 03:06 | 14.49928 | 120.99987 | 90 ft | 3 kts | 231° |
| 2026-05-07 03:06 | 14.49920 | 120.99979 | 90 ft | 0 kts | 225° |
| 2026-05-07 03:07 | 14.49906 | 120.99970 | 90 ft | 4 kts | 200° |
| 2026-05-07 03:07 | 14.49863 | 120.99973 | 90 ft | 8 kts | 157° |
| 2026-05-07 03:07 | 14.49813 | 121.00005 | 90 ft | 7 kts | 135° |
| 2026-05-07 03:07 | 14.49810 | 121.00058 | 90 ft | 5 kts | 62° |
| 2026-05-07 03:08 | 14.49820 | 121.00075 | 90 ft | 3 kts | 61° |
| 2026-05-07 03:08 | 14.49822 | 121.00079 | 90 ft | 0 kts | 61° |
| 2026-05-07 03:08 | 14.49829 | 121.00093 | 90 ft | 3 kts | 61° |
| 2026-05-07 03:08 | 14.49851 | 121.00134 | 90 ft | 12 kts | 60° |
| 2026-05-07 03:09 | 14.49987 | 121.00379 | 90 ft | 72 kts | 60° |
| 2026-05-07 03:09 | 14.50338 | 121.01013 | 90 ft | 129 kts | 59° |
| 2026-05-07 03:09 | 14.50864 | 121.01952 | 198 ft | 165 kts | 59° |
| 2026-05-07 03:09 | 14.51442 | 121.02958 | 780 ft | 163 kts | 62° |
| 2026-05-07 03:10 | 14.51990 | 121.03945 | 1416 ft | 159 kts | 63° |
| 2026-05-07 03:10 | 14.52506 | 121.04924 | 2010 ft | 152 kts | 62° |
| 2026-05-07 03:10 | 14.53042 | 121.05911 | 2270 ft | 164 kts | 62° |
| 2026-05-07 03:10 | 14.53628 | 121.06966 | 2514 ft | 177 kts | 61° |
| 2026-05-07 03:11 | 14.54272 | 121.08124 | 2772 ft | 192 kts | 61° |
| 2026-05-07 03:11 | 14.54937 | 121.09364 | 3044 ft | 207 kts | 69° |
| 2026-05-07 03:11 | 14.55031 | 121.10877 | 3304 ft | 225 kts | 109° |
| 2026-05-07 03:11 | 14.54096 | 121.12248 | 3603 ft | 245 kts | 134° |
| 2026-05-07 03:12 | 14.52786 | 121.13472 | 3941 ft | 262 kts | 136° |
| 2026-05-07 03:12 | 14.51405 | 121.14733 | 4511 ft | 269 kts | 136° |
| 2026-05-07 03:12 | 14.50033 | 121.16034 | 5212 ft | 270 kts | 134° |
| 2026-05-07 03:12 | 14.48681 | 121.17357 | 5915 ft | 271 kts | 134° |
| 2026-05-07 03:13 | 14.47325 | 121.18712 | 6637 ft | 273 kts | 133° |
| 2026-05-07 03:13 | 14.45955 | 121.20101 | 7332 ft | 276 kts | 133° |
| 2026-05-07 03:13 | 14.44597 | 121.21489 | 7980 ft | 279 kts | 133° |
| 2026-05-07 03:13 | 14.43209 | 121.22917 | 8657 ft | 282 kts | 133° |
| 2026-05-07 03:14 | 14.41830 | 121.24336 | 9299 ft | 285 kts | 133° |
| 2026-05-07 03:14 | 14.40409 | 121.25803 | 9934 ft | 288 kts | 133° |
| 2026-05-07 03:14 | 14.37503 | 121.28809 | 10731 ft | 313 kts | 133° |
| 2026-05-07 03:15 | 14.35914 | 121.30452 | 11114 ft | 326 kts | 133° |
| 2026-05-07 03:15 | 14.34319 | 121.32098 | 11678 ft | 330 kts | 133° |
| 2026-05-07 03:15 | 14.32683 | 121.33787 | 12336 ft | 333 kts | 133° |
| 2026-05-07 03:15 | 14.31051 | 121.35471 | 12954 ft | 336 kts | 133° |
| 2026-05-07 03:16 | 14.29388 | 121.37188 | 13553 ft | 339 kts | 133° |
| 2026-05-07 03:16 | 14.27715 | 121.38914 | 14171 ft | 342 kts | 133° |
| 2026-05-07 03:16 | 14.26037 | 121.40646 | 14756 ft | 346 kts | 133° |
| 2026-05-07 03:16 | 14.24325 | 121.42414 | 15314 ft | 350 kts | 133° |
| 2026-05-07 03:17 | 14.22606 | 121.44187 | 15894 ft | 353 kts | 133° |
| 2026-05-07 03:17 | 14.20848 | 121.46001 | 16466 ft | 357 kts | 133° |
| 2026-05-07 03:17 | 14.19105 | 121.47800 | 17014 ft | 360 kts | 133° |
| 2026-05-07 03:17 | 14.17324 | 121.49639 | 17601 ft | 362 kts | 133° |
| 2026-05-07 03:18 | 14.15528 | 121.51491 | 18172 ft | 365 kts | 133° |
| 2026-05-07 03:18 | 14.13735 | 121.53339 | 18732 ft | 367 kts | 133° |
| 2026-05-07 03:18 | 14.11926 | 121.55204 | 19273 ft | 370 kts | 133° |
| 2026-05-07 03:18 | 14.10094 | 121.57095 | 19797 ft | 374 kts | 133° |
| 2026-05-07 03:19 | 14.08254 | 121.58991 | 20312 ft | 377 kts | 134° |
| 2026-05-07 03:19 | 14.06394 | 121.60906 | 20801 ft | 380 kts | 134° |
| 2026-05-07 03:19 | 14.04514 | 121.62842 | 21297 ft | 383 kts | 133° |
| 2026-05-07 03:19 | 14.02628 | 121.64782 | 21787 ft | 385 kts | 133° |
| 2026-05-07 03:20 | 14.00733 | 121.66734 | 22256 ft | 388 kts | 133° |
| 2026-05-07 03:20 | 13.98812 | 121.68714 | 22724 ft | 391 kts | 134° |
| 2026-05-07 03:20 | 13.96895 | 121.70691 | 23163 ft | 395 kts | 134° |
| 2026-05-07 03:20 | 13.94934 | 121.72711 | 23605 ft | 399 kts | 134° |
| 2026-05-07 03:21 | 13.92982 | 121.74720 | 24044 ft | 402 kts | 134° |
| 2026-05-07 03:21 | 13.91006 | 121.76753 | 24486 ft | 405 kts | 134° |
| 2026-05-07 03:21 | 13.88983 | 121.78831 | 24930 ft | 408 kts | 135° |
| 2026-05-07 03:21 | 13.86930 | 121.80806 | 25356 ft | 412 kts | 138° |
| 2026-05-07 03:22 | 13.84695 | 121.82713 | 25790 ft | 415 kts | 141° |
| 2026-05-07 03:22 | 13.82366 | 121.84499 | 26206 ft | 418 kts | 143° |
| 2026-05-07 03:22 | 13.80020 | 121.86265 | 26614 ft | 421 kts | 143° |
| 2026-05-07 03:22 | 13.77644 | 121.88049 | 27009 ft | 425 kts | 143° |
| 2026-05-07 03:23 | 13.75239 | 121.89856 | 27400 ft | 428 kts | 143° |
| 2026-05-07 03:23 | 13.72832 | 121.91666 | 27786 ft | 431 kts | 143° |
| 2026-05-07 03:23 | 13.70399 | 121.93498 | 28165 ft | 434 kts | 143° |
| 2026-05-07 03:23 | 13.67967 | 121.95330 | 28528 ft | 437 kts | 143° |
| 2026-05-07 03:24 | 13.65508 | 121.97183 | 28888 ft | 440 kts | 143° |
| 2026-05-07 03:24 | 13.63041 | 121.99042 | 29235 ft | 443 kts | 143° |
| 2026-05-07 03:24 | 13.60547 | 122.00921 | 29615 ft | 445 kts | 144° |
| 2026-05-07 03:24 | 13.58056 | 122.02798 | 29993 ft | 447 kts | 144° |
| 2026-05-07 03:25 | 13.55537 | 122.04695 | 30362 ft | 449 kts | 144° |
| 2026-05-07 03:25 | 13.53012 | 122.06596 | 30714 ft | 450 kts | 144° |
| 2026-05-07 03:25 | 13.50487 | 122.08496 | 31061 ft | 452 kts | 144° |
| 2026-05-07 03:25 | 13.47948 | 122.10406 | 31412 ft | 454 kts | 144° |
| 2026-05-07 03:26 | 13.45382 | 122.12334 | 31751 ft | 455 kts | 144° |
| 2026-05-07 03:26 | 13.42832 | 122.14252 | 32083 ft | 457 kts | 144° |
| 2026-05-07 03:26 | 13.40302 | 122.16155 | 32396 ft | 459 kts | 144° |
| 2026-05-07 03:26 | 13.37695 | 122.18115 | 32733 ft | 460 kts | 144° |
| 2026-05-07 03:27 | 13.35082 | 122.20078 | 33172 ft | 460 kts | 145° |
| 2026-05-07 03:27 | 13.32520 | 122.22003 | 33658 ft | 459 kts | 145° |
| 2026-05-07 03:27 | 13.29942 | 122.23940 | 34095 ft | 460 kts | 145° |
| 2026-05-07 03:27 | 13.27347 | 122.25887 | 34477 ft | 461 kts | 145° |
| 2026-05-07 03:28 | 13.24757 | 122.27830 | 34823 ft | 462 kts | 145° |
| 2026-05-07 03:28 | 13.19557 | 122.31730 | 34883 ft | 464 kts | 145° |
| 2026-05-07 03:29 | 13.14352 | 122.35634 | 34883 ft | 463 kts | 145° |
| 2026-05-07 03:29 | 13.09142 | 122.39538 | 34882 ft | 463 kts | 145° |
| 2026-05-07 03:30 | 13.03936 | 122.43436 | 34880 ft | 463 kts | 145° |
| 2026-05-07 03:30 | 12.98755 | 122.47317 | 34879 ft | 463 kts | 145° |
| 2026-05-07 03:31 | 12.93542 | 122.51219 | 34871 ft | 463 kts | 145° |
| 2026-05-07 03:31 | 12.89219 | 122.54453 | 34870 ft | 462 kts | 145° |
| 2026-05-07 03:32 | 12.84863 | 122.57712 | 34870 ft | 462 kts | 145° |
| 2026-05-07 03:34 | 12.67150 | 122.70942 | 34865 ft | 463 kts | 145° |
| 2026-05-07 03:34 | 12.61940 | 122.74829 | 34867 ft | 462 kts | 145° |
| 2026-05-07 03:35 | 12.56758 | 122.78694 | 34864 ft | 462 kts | 145° |
| 2026-05-07 03:35 | 12.51581 | 122.82555 | 34864 ft | 462 kts | 145° |
| 2026-05-07 03:36 | 12.46370 | 122.86441 | 34861 ft | 462 kts | 145° |
| 2026-05-07 03:36 | 12.41172 | 122.90315 | 34863 ft | 462 kts | 145° |
| 2026-05-07 03:37 | 12.35984 | 122.94182 | 34864 ft | 462 kts | 145° |
| 2026-05-07 03:37 | 12.30788 | 122.98046 | 34860 ft | 462 kts | 145° |
| 2026-05-07 03:38 | 12.25600 | 123.01887 | 34863 ft | 462 kts | 145° |
| 2026-05-07 03:38 | 12.20364 | 123.05769 | 34861 ft | 463 kts | 145° |
| 2026-05-07 03:39 | 12.15179 | 123.09615 | 34864 ft | 463 kts | 144° |
| 2026-05-07 03:39 | 12.09939 | 123.13503 | 34865 ft | 463 kts | 145° |
| 2026-05-07 03:40 | 12.04747 | 123.17355 | 34867 ft | 463 kts | 144° |
| 2026-05-07 03:40 | 11.99539 | 123.21216 | 34864 ft | 462 kts | 145° |
| 2026-05-07 03:41 | 11.94352 | 123.25061 | 34863 ft | 462 kts | 145° |
| 2026-05-07 03:41 | 11.89128 | 123.28930 | 34863 ft | 463 kts | 145° |
| 2026-05-07 03:42 | 11.83937 | 123.32772 | 34814 ft | 464 kts | 144° |
| 2026-05-07 03:42 | 11.81299 | 123.34724 | 34523 ft | 463 kts | 144° |
| 2026-05-07 03:42 | 11.78726 | 123.36628 | 34238 ft | 461 kts | 144° |
| 2026-05-07 03:42 | 11.76142 | 123.38539 | 33957 ft | 458 kts | 144° |
| 2026-05-07 03:43 | 11.73556 | 123.40452 | 33672 ft | 457 kts | 144° |
| 2026-05-07 03:43 | 11.70977 | 123.42361 | 33385 ft | 457 kts | 144° |
| 2026-05-07 03:43 | 11.68426 | 123.44246 | 33107 ft | 458 kts | 144° |
| 2026-05-07 03:43 | 11.65812 | 123.46178 | 32819 ft | 459 kts | 144° |
| 2026-05-07 03:44 | 11.63256 | 123.48067 | 32538 ft | 459 kts | 144° |
| 2026-05-07 03:44 | 11.60662 | 123.49982 | 32282 ft | 458 kts | 144° |
| 2026-05-07 03:44 | 11.58076 | 123.51891 | 32025 ft | 456 kts | 144° |
| 2026-05-07 03:44 | 11.55500 | 123.53794 | 31768 ft | 455 kts | 144° |
| 2026-05-07 03:45 | 11.52940 | 123.55685 | 31516 ft | 453 kts | 144° |
| 2026-05-07 03:45 | 11.50415 | 123.57548 | 31266 ft | 452 kts | 144° |
| 2026-05-07 03:45 | 11.47858 | 123.59434 | 31010 ft | 451 kts | 144° |
| 2026-05-07 03:45 | 11.45300 | 123.61320 | 30754 ft | 449 kts | 144° |
| 2026-05-07 03:46 | 11.42762 | 123.63193 | 30496 ft | 448 kts | 144° |
| 2026-05-07 03:46 | 11.40259 | 123.65040 | 30244 ft | 447 kts | 144° |
| 2026-05-07 03:46 | 11.37744 | 123.66894 | 29989 ft | 445 kts | 144° |
| 2026-05-07 03:46 | 11.35248 | 123.68735 | 29735 ft | 444 kts | 144° |
| 2026-05-07 03:47 | 11.32739 | 123.70585 | 29479 ft | 442 kts | 144° |
| 2026-05-07 03:47 | 11.30506 | 123.72232 | 29256 ft | 441 kts | 144° |
| 2026-05-07 03:47 | 11.28028 | 123.74059 | 29013 ft | 439 kts | 144° |
| 2026-05-07 03:47 | 11.25571 | 123.75872 | 28778 ft | 438 kts | 144° |
| 2026-05-07 03:48 | 11.23092 | 123.77701 | 28552 ft | 437 kts | 144° |
| 2026-05-07 03:48 | 11.20647 | 123.79501 | 28278 ft | 436 kts | 143° |
| 2026-05-07 03:48 | 11.18184 | 123.81314 | 27932 ft | 433 kts | 143° |
| 2026-05-07 03:48 | 11.15717 | 123.83027 | 27581 ft | 431 kts | 149° |
| 2026-05-07 03:49 | 11.13042 | 123.84335 | 27220 ft | 429 kts | 159° |
| 2026-05-07 03:49 | 11.10166 | 123.85194 | 26843 ft | 427 kts | 168° |
| 2026-05-07 03:49 | 11.07251 | 123.85735 | 26481 ft | 424 kts | 170° |
| 2026-05-07 03:49 | 11.04351 | 123.86217 | 26118 ft | 421 kts | 170° |
| 2026-05-07 03:50 | 11.01468 | 123.86692 | 25741 ft | 418 kts | 169° |
| 2026-05-07 03:50 | 10.98593 | 123.87174 | 25375 ft | 415 kts | 169° |
| 2026-05-07 03:50 | 10.95766 | 123.87653 | 25003 ft | 412 kts | 169° |
| 2026-05-07 03:50 | 10.92941 | 123.88138 | 24629 ft | 409 kts | 169° |
| 2026-05-07 03:51 | 10.90140 | 123.88622 | 24264 ft | 406 kts | 169° |
| 2026-05-07 03:51 | 10.87346 | 123.89105 | 23896 ft | 404 kts | 168° |
| 2026-05-07 03:51 | 10.84569 | 123.89585 | 23528 ft | 401 kts | 168° |
| 2026-05-07 03:51 | 10.81855 | 123.90054 | 23160 ft | 399 kts | 168° |
| 2026-05-07 03:52 | 10.79112 | 123.90530 | 22777 ft | 397 kts | 168° |
| 2026-05-07 03:52 | 10.76382 | 123.91004 | 22398 ft | 394 kts | 167° |
| 2026-05-07 03:52 | 10.73691 | 123.91471 | 22040 ft | 392 kts | 167° |
| 2026-05-07 03:52 | 10.70982 | 123.91943 | 21683 ft | 390 kts | 167° |
| 2026-05-07 03:53 | 10.68313 | 123.92406 | 21332 ft | 388 kts | 167° |
| 2026-05-07 03:53 | 10.65662 | 123.92868 | 20982 ft | 386 kts | 167° |
| 2026-05-07 03:53 | 10.62992 | 123.93332 | 20631 ft | 383 kts | 167° |
| 2026-05-07 03:53 | 10.60366 | 123.93787 | 20284 ft | 382 kts | 167° |
| 2026-05-07 03:54 | 10.57754 | 123.94240 | 19928 ft | 380 kts | 167° |
| 2026-05-07 03:54 | 10.55151 | 123.94692 | 19580 ft | 378 kts | 167° |
| 2026-05-07 03:54 | 10.52537 | 123.95145 | 19222 ft | 376 kts | 167° |
| 2026-05-07 03:54 | 10.49964 | 123.95591 | 18866 ft | 374 kts | 167° |
| 2026-05-07 03:55 | 10.47409 | 123.96035 | 18516 ft | 372 kts | 167° |
| 2026-05-07 03:55 | 10.44871 | 123.96474 | 18167 ft | 371 kts | 167° |
| 2026-05-07 03:55 | 10.42327 | 123.96917 | 17817 ft | 369 kts | 167° |
| 2026-05-07 03:55 | 10.39778 | 123.97359 | 17465 ft | 367 kts | 167° |
| 2026-05-07 03:56 | 10.37274 | 123.97792 | 17130 ft | 365 kts | 167° |
| 2026-05-07 03:56 | 10.34788 | 123.98222 | 16799 ft | 363 kts | 167° |
| 2026-05-07 03:56 | 10.32278 | 123.98646 | 16461 ft | 361 kts | 168° |
| 2026-05-07 03:56 | 10.29787 | 123.98929 | 16119 ft | 360 kts | 172° |
| 2026-05-07 03:57 | 10.27293 | 123.99114 | 15767 ft | 359 kts | 173° |
| 2026-05-07 03:57 | 10.24823 | 123.99284 | 15418 ft | 358 kts | 173° |
| 2026-05-07 03:57 | 10.22327 | 123.99456 | 15072 ft | 356 kts | 173° |
| 2026-05-07 03:57 | 10.19880 | 123.99625 | 14733 ft | 354 kts | 173° |
| 2026-05-07 03:58 | 10.17422 | 123.99798 | 14393 ft | 353 kts | 173° |
| 2026-05-07 03:58 | 10.14959 | 123.99970 | 14051 ft | 351 kts | 173° |
| 2026-05-07 03:58 | 10.12547 | 124.00141 | 13728 ft | 350 kts | 173° |
| 2026-05-07 03:58 | 10.10101 | 124.00314 | 13375 ft | 349 kts | 173° |
| 2026-05-07 03:59 | 10.07698 | 124.00485 | 13018 ft | 347 kts | 172° |
| 2026-05-07 03:59 | 10.05288 | 124.00655 | 12697 ft | 345 kts | 172° |
| 2026-05-07 03:59 | 10.02890 | 124.00824 | 12360 ft | 344 kts | 172° |
| 2026-05-07 03:59 | 10.00473 | 124.00995 | 12010 ft | 343 kts | 172° |
| 2026-05-07 04:00 | 9.98102 | 124.01163 | 11665 ft | 341 kts | 172° |
| 2026-05-07 04:00 | 9.95760 | 124.01330 | 11340 ft | 339 kts | 172° |
| 2026-05-07 04:00 | 9.93402 | 124.01496 | 11020 ft | 337 kts | 172° |
| 2026-05-07 04:00 | 9.91035 | 124.01630 | 10661 ft | 338 kts | 177° |
| 2026-05-07 04:01 | 9.88692 | 124.01311 | 10299 ft | 343 kts | 192° |
| 2026-05-07 04:01 | 9.86443 | 124.00472 | 9993 ft | 340 kts | 200° |
| 2026-05-07 04:01 | 9.84355 | 123.99526 | 9912 ft | 320 kts | 201° |
| 2026-05-07 04:01 | 9.82350 | 123.98595 | 9916 ft | 307 kts | 201° |
| 2026-05-07 04:02 | 9.80436 | 123.97715 | 9766 ft | 302 kts | 201° |
| 2026-05-07 04:02 | 9.78518 | 123.96846 | 9477 ft | 302 kts | 200° |
| 2026-05-07 04:02 | 9.72621 | 123.94209 | 8592 ft | 302 kts | 200° |
| 2026-05-07 04:02 | 9.59008 | 123.88093 | 7030 ft | 298 kts | 205° |
| 2026-05-07 04:03 | 9.57201 | 123.87079 | 6817 ft | 296 kts | 207° |
| 2026-05-07 04:03 | 9.55419 | 123.86066 | 6561 ft | 295 kts | 206° |
| 2026-05-07 04:03 | 9.51078 | 123.83727 | 6150 ft | 291 kts | 205° |
| 2026-05-07 04:03 | 9.38557 | 123.77210 | 4930 ft | 286 kts | 203° |
| 2026-05-07 04:04 | 9.36873 | 123.76211 | 4557 ft | 281 kts | 224° |
| 2026-05-07 04:04 | 9.35909 | 123.74541 | 4218 ft | 273 kts | 261° |
| 2026-05-07 04:04 | 9.36033 | 123.72697 | 3773 ft | 264 kts | 298° |
| 2026-05-07 04:04 | 9.37089 | 123.71281 | 3405 ft | 250 kts | 320° |
| 2026-05-07 04:05 | 9.38296 | 123.70039 | 3173 ft | 239 kts | 315° |
| 2026-05-07 04:05 | 9.39312 | 123.68789 | 3136 ft | 220 kts | 313° |
| 2026-05-07 04:05 | 9.40405 | 123.67873 | 3124 ft | 193 kts | 347° |
| 2026-05-07 04:05 | 9.41629 | 123.67822 | 3136 ft | 167 kts | 20° |
| 2026-05-07 04:06 | 9.42680 | 123.68270 | 3068 ft | 162 kts | 32° |
| 2026-05-07 04:06 | 9.43651 | 123.68839 | 2851 ft | 162 kts | 34° |
| 2026-05-07 04:06 | 9.44601 | 123.69427 | 2627 ft | 160 kts | 34° |
| 2026-05-07 04:06 | 9.45544 | 123.70003 | 2412 ft | 155 kts | 34° |
| 2026-05-07 04:07 | 9.46456 | 123.70552 | 2207 ft | 148 kts | 34° |
| 2026-05-07 04:07 | 9.47314 | 123.71064 | 2015 ft | 140 kts | 34° |
| 2026-05-07 04:07 | 9.48135 | 123.71552 | 1829 ft | 133 kts | 34° |
| 2026-05-07 04:07 | 9.48929 | 123.72025 | 1664 ft | 131 kts | 34° |
| 2026-05-07 04:08 | 9.49717 | 123.72495 | 1499 ft | 131 kts | 34° |
| 2026-05-07 04:08 | 9.50519 | 123.72973 | 1318 ft | 135 kts | 33° |
| 2026-05-07 04:08 | 9.51331 | 123.73457 | 1132 ft | 136 kts | 33° |
| 2026-05-07 04:08 | 9.51598 | 123.73616 | 1068 ft | 136 kts | 33° |
| 2026-05-07 04:09 | 9.52963 | 123.74429 | 771 ft | 136 kts | 33° |
| 2026-05-07 04:09 | 9.53775 | 123.74913 | 588 ft | 135 kts | 33° |
| 2026-05-07 04:09 | 9.54594 | 123.75403 | 453 ft | 135 kts | 32° |
| 2026-05-07 04:09 | 9.55401 | 123.75880 | 284 ft | 135 kts | 33° |
| 2026-05-07 04:10 | 9.56212 | 123.76365 | 111 ft | 135 kts | 32° |
| 2026-05-07 04:10 | 9.57009 | 123.76839 | 51 ft | 121 kts | 31° |
| 2026-05-07 04:10 | 9.57585 | 123.77181 | 51 ft | 66 kts | 31° |
| 2026-05-07 04:10 | 9.57872 | 123.77352 | 52 ft | 33 kts | 31° |
| 2026-05-07 04:11 | 9.58059 | 123.77464 | 54 ft | 29 kts | 30° |
| 2026-05-07 04:11 | 9.58223 | 123.77561 | 54 ft | 18 kts | 31° |
| 2026-05-07 04:11 | 9.58298 | 123.77640 | 54 ft | 10 kts | 46° |